Time,TemperatureF,DewpointF,PressureIn,WindDirection,WindDirectionDegrees,WindSpeedMPH,WindSpeedGustMPH,Humidity,HourlyPrecipIn,Conditions,Clouds,dailyrainin,SoftwareType,DateUTC
2013-03-10 00:00:00,25.3,23.5,30.34,East,93,0.0,0.0,93,0.00,,,0.00,meteohub,2013-03-10 05:00:00,
2013-03-10 00:01:00,25.2,23.4,30.34,East,93,0.0,0.0,93,0.00,,,0.00,meteohub,2013-03-10 05:01:00,
2013-03-10 00:06:00,25.0,23.2,30.35,East,93,0.0,0.0,93,0.00,,,0.00,meteohub,2013-03-10 05:06:00,
2013-03-10 00:11:00,25.0,23.2,30.35,East,93,0.0,0.0,93,0.00,,,0.00,meteohub,2013-03-10 05:11:00,
2013-03-10 00:16:00,25.0,23.2,30.35,East,93,0.0,0.0,93,0.00,,,0.00,meteohub,2013-03-10 05:16:00,
2013-03-10 00:21:00,24.6,22.8,30.35,East,93,0.0,0.0,93,0.00,,,0.00,meteohub,2013-03-10 05:21:00,
2013-03-10 00:26:00,24.8,23.0,30.35,East,93,0.0,0.0,93,0.00,,,0.00,meteohub,2013-03-10 05:26:00,
2013-03-10 00:31:00,25.0,23.2,30.36,East,94,0.0,0.0,93,0.00,,,0.00,meteohub,2013-03-10 05:31:00,
2013-03-10 00:36:00,24.8,23.0,30.36,East,93,0.0,0.0,93,0.00,,,0.00,meteohub,2013-03-10 05:36:00,
2013-03-10 00:41:00,24.6,22.8,30.36,East,93,0.0,1.0,93,0.00,,,0.00,meteohub,2013-03-10 05:41:00,
2013-03-10 00:46:00,25.0,23.2,30.36,East,93,0.0,1.0,93,0.00,,,0.00,meteohub,2013-03-10 05:46:00,
2013-03-10 00:51:00,24.4,22.6,30.36,East,93,0.0,1.0,93,0.00,,,0.00,meteohub,2013-03-10 05:51:00,
2013-03-10 00:56:00,24.4,22.6,30.36,East,93,0.0,0.0,93,0.00,,,0.00,meteohub,2013-03-10 05:56:00,
2013-03-10 01:01:00,24.3,22.5,30.36,East,93,0.0,0.0,93,0.00,,,0.00,meteohub,2013-03-10 06:01:00,
2013-03-10 01:06:00,24.4,23.0,30.36,East,93,0.0,0.0,94,0.00,,,0.00,meteohub,2013-03-10 06:06:00,
2013-03-10 01:11:00,24.3,22.5,30.36,East,93,0.0,0.0,93,0.00,,,0.00,meteohub,2013-03-10 06:11:00,
2013-03-10 01:16:00,24.1,22.3,30.36,East,93,0.0,0.0,93,0.00,,,0.00,meteohub,2013-03-10 06:16:00,
2013-03-10 01:21:00,24.3,22.5,30.36,East,93,0.0,0.0,93,0.00,,,0.00,meteohub,2013-03-10 06:21:00,
2013-03-10 01:26:00,24.1,22.3,30.36,East,93,0.0,0.0,93,0.00,,,0.00,meteohub,2013-03-10 06:26:00,
2013-03-10 01:31:00,24.1,22.3,30.36,East,93,0.0,0.0,93,0.00,,,0.00,meteohub,2013-03-10 06:31:00,
2013-03-10 01:36:00,24.3,22.5,30.36,East,93,0.0,0.0,93,0.00,,,0.00,meteohub,2013-03-10 06:36:00,
2013-03-10 01:41:00,24.1,22.3,30.36,East,93,0.0,0.0,93,0.00,,,0.00,meteohub,2013-03-10 06:41:00,
2013-03-10 01:46:00,23.5,21.7,30.36,East,93,0.0,0.0,93,0.00,,,0.00,meteohub,2013-03-10 06:46:00,
2013-03-10 01:51:00,23.5,21.7,30.36,East,93,0.0,0.0,93,0.00,,,0.00,meteohub,2013-03-10 06:51:00,
2013-03-10 01:56:00,23.5,21.7,30.36,East,93,0.0,0.0,93,0.00,,,0.00,meteohub,2013-03-10 06:56:00,
2013-03-10 03:01:00,23.5,21.7,30.36,East,93,0.0,-999.0,93,-99.99,,,0.00,meteohub,2013-03-10 07:01:00,
2013-03-10 03:06:00,23.4,21.6,30.36,East,94,0.0,-999.0,93,-99.99,,,0.00,meteohub,2013-03-10 07:06:00,
2013-03-10 03:11:00,23.4,21.6,30.36,East,94,0.0,-999.0,93,-99.99,,,0.00,meteohub,2013-03-10 07:11:00,
2013-03-10 03:16:00,23.4,21.6,30.36,East,93,0.0,-999.0,93,-99.99,,,0.00,meteohub,2013-03-10 07:16:00,
2013-03-10 03:21:00,23.5,21.7,30.36,East,93,0.0,-999.0,93,-99.99,,,0.00,meteohub,2013-03-10 07:21:00,
2013-03-10 03:26:00,23.5,21.7,30.35,East,93,0.0,-999.0,93,-99.99,,,0.00,meteohub,2013-03-10 07:26:00,
2013-03-10 03:31:00,23.7,22.3,30.35,East,93,0.0,-999.0,94,-99.99,,,0.00,meteohub,2013-03-10 07:31:00,
2013-03-10 03:36:00,23.5,21.7,30.35,East,93,0.0,-999.0,93,-99.99,,,0.00,meteohub,2013-03-10 07:36:00,
2013-03-10 03:41:00,23.4,21.6,30.36,East,93,0.0,-999.0,93,-99.99,,,0.00,meteohub,2013-03-10 07:41:00,
2013-03-10 03:46:00,23.2,21.4,30.35,East,93,0.0,-999.0,93,-99.99,,,0.00,meteohub,2013-03-10 07:46:00,
2013-03-10 03:51:00,23.2,21.7,30.35,East,93,0.0,-999.0,94,-99.99,,,0.00,meteohub,2013-03-10 07:51:00,
2013-03-10 03:56:00,23.4,21.9,30.35,East,93,0.0,-999.0,94,-99.99,,,0.00,meteohub,2013-03-10 07:56:00,
2013-03-10 04:01:00,23.4,21.9,30.35,East,93,0.0,-999.0,94,-99.99,,,0.00,meteohub,2013-03-10 08:01:00,
2013-03-10 04:06:00,23.5,22.1,30.35,East,93,0.0,-999.0,94,-99.99,,,0.00,meteohub,2013-03-10 08:06:00,
2013-03-10 04:12:00,23.7,22.3,30.35,East,93,0.0,-999.0,94,-99.99,,,0.00,meteohub,2013-03-10 08:12:00,
2013-03-10 04:17:00,23.7,22.3,30.35,East,93,0.0,-999.0,94,-99.99,,,0.00,meteohub,2013-03-10 08:17:00,
2013-03-10 04:22:00,23.4,21.9,30.35,East,93,0.0,-999.0,94,-99.99,,,0.00,meteohub,2013-03-10 08:22:00,
2013-03-10 04:27:00,23.2,21.7,30.35,East,93,0.0,-999.0,94,-99.99,,,0.00,meteohub,2013-03-10 08:27:00,
2013-03-10 04:32:00,23.2,21.7,30.36,East,93,0.0,-999.0,94,-99.99,,,0.00,meteohub,2013-03-10 08:32:00,
2013-03-10 04:37:00,23.4,21.9,30.36,East,93,0.0,-999.0,94,-99.99,,,0.00,meteohub,2013-03-10 08:37:00,
2013-03-10 04:42:00,23.2,21.7,30.36,East,93,0.0,-999.0,94,-99.99,,,0.00,meteohub,2013-03-10 08:42:00,
2013-03-10 04:47:00,23.4,21.9,30.36,East,93,0.0,-999.0,94,-99.99,,,0.00,meteohub,2013-03-10 08:47:00,
2013-03-10 04:52:00,22.8,21.0,30.36,East,93,0.0,-999.0,93,-99.99,,,0.00,meteohub,2013-03-10 08:52:00,
2013-03-10 04:57:00,22.8,21.4,30.36,East,93,0.0,-999.0,94,-99.99,,,0.00,meteohub,2013-03-10 08:57:00,
2013-03-10 05:02:00,22.8,21.4,30.36,East,93,0.0,-999.0,94,-99.99,,,0.00,meteohub,2013-03-10 09:02:00,
2013-03-10 05:07:00,23.4,21.9,30.36,East,93,0.0,-999.0,94,-99.99,,,0.00,meteohub,2013-03-10 09:07:00,
2013-03-10 05:12:00,23.2,21.7,30.36,East,93,0.0,-999.0,94,-99.99,,,0.00,meteohub,2013-03-10 09:12:00,
2013-03-10 05:17:00,22.8,21.0,30.37,East,93,0.0,-999.0,93,-99.99,,,0.00,meteohub,2013-03-10 09:17:00,
2013-03-10 05:22:00,22.3,20.5,30.37,East,93,0.0,-999.0,93,-99.99,,,0.00,meteohub,2013-03-10 09:22:00,
2013-03-10 05:27:00,22.1,20.3,30.37,East,93,0.0,-999.0,93,-99.99,,,0.00,meteohub,2013-03-10 09:27:00,
2013-03-10 05:32:00,21.9,20.1,30.37,East,93,0.0,-999.0,93,-99.99,,,0.00,meteohub,2013-03-10 09:32:00,
2013-03-10 05:37:00,21.9,20.1,30.36,East,93,0.0,-999.0,93,-99.99,,,0.00,meteohub,2013-03-10 09:37:00,
2013-03-10 05:42:00,22.5,21.0,30.37,East,93,0.0,-999.0,94,-99.99,,,0.00,meteohub,2013-03-10 09:42:00,
2013-03-10 05:47:00,22.3,20.5,30.37,East,93,0.0,-999.0,93,-99.99,,,0.00,meteohub,2013-03-10 09:47:00,
2013-03-10 05:52:00,21.9,20.1,30.37,East,93,0.0,-999.0,93,-99.99,,,0.00,meteohub,2013-03-10 09:52:00,
2013-03-10 05:57:00,21.9,20.1,30.37,East,93,0.0,-999.0,93,-99.99,,,0.00,meteohub,2013-03-10 09:57:00,
2013-03-10 06:02:00,21.7,20.1,30.37,East,93,0.0,-999.0,93,-99.99,,,0.00,meteohub,2013-03-10 10:02:00,
2013-03-10 06:07:00,22.3,20.8,30.36,East,93,0.0,-999.0,94,-99.99,,,0.00,meteohub,2013-03-10 10:07:00,
2013-03-10 06:12:00,22.6,21.2,30.36,East,93,0.0,-999.0,94,-99.99,,,0.00,meteohub,2013-03-10 10:12:00,
2013-03-10 06:17:00,22.5,20.7,30.36,East,93,0.0,-999.0,93,-99.99,,,0.00,meteohub,2013-03-10 10:17:00,
2013-03-10 06:22:00,21.6,19.9,30.36,East,93,0.0,-999.0,93,-99.99,,,0.00,meteohub,2013-03-10 10:22:00,
2013-03-10 06:27:00,21.2,19.6,30.37,East,93,0.0,-999.0,93,-99.99,,,0.00,meteohub,2013-03-10 10:27:00,
2013-03-10 06:32:00,21.4,19.8,30.37,East,93,0.0,-999.0,93,-99.99,,,0.00,meteohub,2013-03-10 10:32:00,
2013-03-10 06:37:00,21.7,20.1,30.37,East,93,0.0,-999.0,93,-99.99,,,0.00,meteohub,2013-03-10 10:37:00,
2013-03-10 06:42:00,21.6,19.9,30.36,East,93,0.0,-999.0,93,-99.99,,,0.00,meteohub,2013-03-10 10:42:00,
2013-03-10 06:47:00,21.6,19.9,30.37,East,93,0.0,-999.0,93,-99.99,,,0.00,meteohub,2013-03-10 10:47:00,
2013-03-10 06:52:00,21.4,19.8,30.37,East,93,0.0,-999.0,93,-99.99,,,0.00,meteohub,2013-03-10 10:52:00,
2013-03-10 06:57:00,20.8,18.9,30.37,East,93,0.0,-999.0,92,-99.99,,,0.00,meteohub,2013-03-10 10:57:00,
2013-03-10 07:02:00,21.0,19.4,30.37,East,93,0.0,-999.0,93,-99.99,,,0.00,meteohub,2013-03-10 11:02:00,
2013-03-10 07:07:00,20.8,19.2,30.37,East,93,0.0,-999.0,93,-99.99,,,0.00,meteohub,2013-03-10 11:07:00,
2013-03-10 07:12:00,21.0,19.4,30.37,East,93,0.0,-999.0,93,-99.99,,,0.00,meteohub,2013-03-10 11:12:00,
2013-03-10 07:17:00,21.0,19.4,30.38,East,93,0.0,0.0,93,-99.99,,,0.00,meteohub,2013-03-10 11:17:00,
2013-03-10 07:22:00,20.8,19.2,30.38,East,93,0.0,0.0,93,-99.99,,,0.00,meteohub,2013-03-10 11:22:00,
2013-03-10 07:27:00,20.8,19.2,30.38,East,94,0.0,0.0,93,-99.99,,,0.00,meteohub,2013-03-10 11:27:00,
2013-03-10 07:32:00,20.8,19.2,30.38,East,93,0.0,0.0,93,-99.99,,,0.00,meteohub,2013-03-10 11:32:00,
2013-03-10 07:37:00,21.2,19.6,30.38,East,93,0.0,0.0,93,-99.99,,,0.00,meteohub,2013-03-10 11:37:00,
2013-03-10 07:42:00,21.6,19.9,30.39,East,93,0.0,1.0,93,-99.99,,,0.00,meteohub,2013-03-10 11:42:00,
2013-03-10 07:47:00,21.9,20.1,30.39,East,93,0.0,1.0,93,-99.99,,,0.00,meteohub,2013-03-10 11:47:00,
2013-03-10 07:52:00,21.7,20.1,30.39,East,93,0.0,1.0,93,-99.99,,,0.00,meteohub,2013-03-10 11:52:00,
2013-03-10 07:57:00,21.7,20.1,30.39,East,93,0.0,0.0,93,-99.99,,,0.00,meteohub,2013-03-10 11:57:00,
2013-03-10 08:02:00,22.1,20.3,30.39,East,93,0.0,0.0,93,0.00,,,0.00,meteohub,2013-03-10 12:02:00,
2013-03-10 08:07:00,22.8,21.0,30.39,East,93,0.0,0.0,93,0.00,,,0.00,meteohub,2013-03-10 12:07:00,
2013-03-10 08:12:00,23.4,21.6,30.40,East,93,0.0,0.0,93,0.00,,,0.00,meteohub,2013-03-10 12:12:00,
2013-03-10 08:17:00,24.1,22.3,30.40,East,93,0.0,0.0,93,0.00,,,0.00,meteohub,2013-03-10 12:17:00,
2013-03-10 08:22:00,25.2,23.4,30.40,East,93,0.0,0.0,93,0.00,,,0.00,meteohub,2013-03-10 12:22:00,
2013-03-10 08:27:00,25.7,23.7,30.40,East,93,0.0,0.0,92,0.00,,,0.00,meteohub,2013-03-10 12:27:00,
2013-03-10 08:32:00,26.2,24.3,30.39,East,93,0.0,0.0,92,0.00,,,0.00,meteohub,2013-03-10 12:32:00,
2013-03-10 08:37:00,26.8,24.8,30.39,East,93,0.0,1.0,92,0.00,,,0.00,meteohub,2013-03-10 12:37:00,
2013-03-10 08:42:00,27.9,26.1,30.39,East,93,0.0,1.0,93,0.00,,,0.00,meteohub,2013-03-10 12:42:00,
2013-03-10 08:47:00,28.0,25.7,30.40,East,93,0.0,1.0,91,0.00,,,0.00,meteohub,2013-03-10 12:47:00,
2013-03-10 08:52:00,29.7,27.7,30.40,East,93,0.0,1.0,92,0.00,,,0.00,meteohub,2013-03-10 12:52:00,
2013-03-10 08:57:00,29.5,26.6,30.40,East,93,0.0,0.0,89,0.00,,,0.00,meteohub,2013-03-10 12:57:00,
2013-03-10 09:02:00,29.5,27.0,30.40,East,93,0.0,0.0,90,0.00,,,0.00,meteohub,2013-03-10 13:02:00,
2013-03-10 09:07:00,29.8,27.0,30.40,East,93,0.0,1.0,89,0.00,,,0.00,meteohub,2013-03-10 13:07:00,
2013-03-10 09:13:00,30.4,27.5,30.40,East,93,0.0,1.0,89,0.00,,,0.00,meteohub,2013-03-10 13:13:00,
2013-03-10 09:18:00,30.2,27.3,30.40,North,5,1.0,1.0,89,0.00,,,0.00,meteohub,2013-03-10 13:18:00,
2013-03-10 09:23:00,30.4,27.5,30.40,NNW,348,0.0,2.0,89,0.00,,,0.00,meteohub,2013-03-10 13:23:00,
2013-03-10 09:28:00,30.4,27.5,30.40,NNW,348,0.0,2.0,89,0.00,,,0.00,meteohub,2013-03-10 13:28:00,
2013-03-10 09:33:00,31.1,27.7,30.40,NNW,334,0.0,2.0,87,0.00,,,0.00,meteohub,2013-03-10 13:33:00,
2013-03-10 09:38:00,31.6,28.2,30.40,NNW,334,0.0,2.0,87,0.00,,,0.00,meteohub,2013-03-10 13:38:00,
2013-03-10 09:43:00,31.5,28.0,30.40,ESE,113,1.0,2.0,87,0.00,,,0.00,meteohub,2013-03-10 13:43:00,
2013-03-10 09:48:00,31.8,28.0,30.40,ESE,113,1.0,2.0,86,0.00,,,0.00,meteohub,2013-03-10 13:48:00,
2013-03-10 09:53:00,32.4,28.6,30.40,ESE,113,0.0,2.0,86,0.00,,,0.00,meteohub,2013-03-10 13:53:00,
2013-03-10 09:58:00,33.1,29.1,30.40,SSE,154,2.0,2.0,85,0.00,,,0.00,meteohub,2013-03-10 13:58:00,
2013-03-10 10:03:00,33.3,29.3,30.40,SSW,194,0.0,2.0,85,0.00,,,0.00,meteohub,2013-03-10 14:03:00,
2013-03-10 10:08:00,33.8,29.5,30.40,SE,129,0.0,2.0,84,0.00,,,0.00,meteohub,2013-03-10 14:08:00,
2013-03-10 10:13:00,35.1,30.9,30.40,SE,138,0.0,3.0,85,0.00,,,0.00,meteohub,2013-03-10 14:13:00,
2013-03-10 10:18:00,35.4,30.2,30.40,SE,138,0.0,3.0,81,0.00,,,0.00,meteohub,2013-03-10 14:18:00,
2013-03-10 10:23:00,36.9,30.6,30.40,ESE,107,2.0,2.0,78,0.00,,,0.00,meteohub,2013-03-10 14:23:00,
2013-03-10 10:28:00,36.1,30.2,30.40,SE,144,3.0,3.0,79,0.00,,,0.00,meteohub,2013-03-10 14:28:00,
2013-03-10 10:33:00,36.1,30.2,30.40,ESE,120,4.0,4.0,79,0.00,,,0.00,meteohub,2013-03-10 14:33:00,
2013-03-10 10:38:00,36.1,30.2,30.40,SE,131,3.0,7.0,79,0.00,,,0.00,meteohub,2013-03-10 14:38:00,
2013-03-10 10:43:00,36.7,30.2,30.40,ESE,114,2.0,7.0,77,0.00,,,0.00,meteohub,2013-03-10 14:43:00,
2013-03-10 10:48:00,36.5,30.0,30.40,SE,144,1.0,8.0,77,0.00,,,0.00,meteohub,2013-03-10 14:48:00,
2013-03-10 10:53:00,37.0,30.2,30.40,SE,134,0.0,8.0,76,0.00,,,0.00,meteohub,2013-03-10 14:53:00,
2013-03-10 10:58:00,38.8,32.2,30.40,SE,129,0.0,8.0,77,0.00,,,0.00,meteohub,2013-03-10 14:58:00,
2013-03-10 11:03:00,39.6,30.9,30.40,SE,129,0.0,4.0,71,0.00,,,0.00,meteohub,2013-03-10 15:03:00,
2013-03-10 11:08:00,38.3,30.0,30.40,SE,128,1.0,4.0,72,0.00,,,0.00,meteohub,2013-03-10 15:08:00,
2013-03-10 11:13:00,39.0,31.1,30.40,SSE,147,0.0,3.0,73,0.00,,,0.00,meteohub,2013-03-10 15:13:00,
2013-03-10 11:18:00,38.5,30.2,30.40,SE,136,2.0,3.0,72,0.00,,,0.00,meteohub,2013-03-10 15:18:00,
2013-03-10 11:23:00,38.3,30.4,30.40,SW,223,1.0,3.0,73,0.00,,,0.00,meteohub,2013-03-10 15:23:00,
2013-03-10 11:28:00,38.5,30.6,30.39,SE,125,4.0,4.0,73,0.00,,,0.00,meteohub,2013-03-10 15:28:00,
2013-03-10 11:33:00,38.7,30.7,30.39,ESE,109,2.0,5.0,73,0.00,,,0.00,meteohub,2013-03-10 15:33:00,
2013-03-10 11:38:00,37.9,29.7,30.39,SE,132,2.0,5.0,72,0.00,,,0.00,meteohub,2013-03-10 15:38:00,
2013-03-10 11:43:00,38.3,30.4,30.39,ESE,110,1.0,7.0,73,0.00,,,0.00,meteohub,2013-03-10 15:43:00,
2013-03-10 11:48:00,39.0,30.4,30.38,NE,51,2.0,7.0,71,0.00,,,0.00,meteohub,2013-03-10 15:48:00,
2013-03-10 11:53:00,39.9,30.2,30.38,SE,126,4.0,7.0,68,0.00,,,0.00,meteohub,2013-03-10 15:53:00,
2013-03-10 11:58:00,39.2,30.2,30.38,East,93,2.0,5.0,70,0.00,,,0.00,meteohub,2013-03-10 15:58:00,
2013-03-10 12:03:00,38.8,30.2,30.38,SE,141,3.0,7.0,71,0.00,,,0.00,meteohub,2013-03-10 16:03:00,
2013-03-10 12:08:00,39.0,30.0,30.38,ESE,107,0.0,8.0,70,0.00,,,0.00,meteohub,2013-03-10 16:08:00,
2013-03-10 12:13:00,39.4,30.4,30.38,ESE,118,3.0,8.0,70,0.00,,,0.00,meteohub,2013-03-10 16:13:00,
2013-03-10 12:18:00,39.4,30.7,30.38,SE,133,1.0,7.0,71,0.00,,,0.00,meteohub,2013-03-10 16:18:00,
2013-03-10 12:23:00,40.8,32.2,30.37,SE,135,0.0,7.0,71,0.00,,,0.00,meteohub,2013-03-10 16:23:00,
2013-03-10 12:28:00,40.3,30.2,30.38,SE,132,5.0,7.0,67,0.00,,,0.00,meteohub,2013-03-10 16:28:00,
2013-03-10 12:33:00,39.9,30.9,30.37,South,169,0.0,7.0,70,0.00,,,0.00,meteohub,2013-03-10 16:33:00,
2013-03-10 12:38:00,39.7,30.4,30.37,SE,146,1.0,7.0,69,0.00,,,0.00,meteohub,2013-03-10 16:38:00,
2013-03-10 12:43:00,39.9,30.6,30.37,ESE,111,2.0,7.0,69,0.00,,,0.00,meteohub,2013-03-10 16:43:00,
2013-03-10 12:48:00,40.6,30.9,30.37,East,84,1.0,6.0,68,0.00,,,0.00,meteohub,2013-03-10 16:48:00,
2013-03-10 12:53:00,41.2,30.7,30.37,SSE,149,2.0,6.0,66,0.00,,,0.00,meteohub,2013-03-10 16:53:00,
2013-03-10 12:58:00,40.6,30.6,30.37,ESE,113,2.0,6.0,67,0.00,,,0.00,meteohub,2013-03-10 16:58:00,
2013-03-10 13:03:00,40.6,30.6,30.37,SE,132,4.0,5.0,67,0.00,,,0.00,meteohub,2013-03-10 17:03:00,
2013-03-10 13:08:00,40.6,30.2,30.37,ESE,104,1.0,5.0,66,0.00,,,0.00,meteohub,2013-03-10 17:08:00,
2013-03-10 13:13:00,41.7,30.7,30.37,SE,143,3.0,5.0,65,0.00,,,0.00,meteohub,2013-03-10 17:13:00,
2013-03-10 13:18:00,41.4,30.6,30.37,SE,132,2.0,4.0,65,0.00,,,0.00,meteohub,2013-03-10 17:18:00,
2013-03-10 13:23:00,41.4,30.9,30.37,ESE,119,0.0,4.0,66,0.00,,,0.00,meteohub,2013-03-10 17:23:00,
2013-03-10 13:28:00,41.4,30.9,30.37,SE,127,1.0,4.0,66,0.00,,,0.00,meteohub,2013-03-10 17:28:00,
2013-03-10 13:34:00,41.4,30.6,30.36,SE,132,3.0,4.0,65,0.00,,,0.00,meteohub,2013-03-10 17:34:00,
2013-03-10 13:39:00,41.4,30.6,30.36,SE,138,3.0,5.0,65,0.00,,,0.00,meteohub,2013-03-10 17:39:00,
2013-03-10 13:44:00,41.7,30.0,30.36,SE,127,1.0,6.0,63,0.00,,,0.00,meteohub,2013-03-10 17:44:00,
2013-03-10 13:49:00,41.5,30.2,30.36,SW,227,0.0,6.0,64,0.00,,,0.00,meteohub,2013-03-10 17:49:00,
2013-03-10 13:54:00,42.8,31.1,30.35,ESE,119,0.0,4.0,63,0.00,,,0.00,meteohub,2013-03-10 17:54:00,
2013-03-10 13:59:00,42.6,30.9,30.35,ESE,117,2.0,4.0,63,0.00,,,0.00,meteohub,2013-03-10 17:59:00,
2013-03-10 14:04:00,42.6,30.9,30.35,ESE,118,1.0,5.0,63,0.00,,,0.00,meteohub,2013-03-10 18:04:00,
2013-03-10 14:09:00,42.8,30.7,30.35,ESE,116,5.0,5.0,62,0.00,,,0.00,meteohub,2013-03-10 18:09:00,
2013-03-10 14:14:00,42.3,30.6,30.35,East,92,2.0,8.0,63,0.00,,,0.00,meteohub,2013-03-10 18:14:00,
2013-03-10 14:19:00,43.0,30.9,30.35,SSE,159,2.0,8.0,62,0.00,,,0.00,meteohub,2013-03-10 18:19:00,
2013-03-10 14:24:00,42.6,30.2,30.35,ESE,104,1.0,8.0,61,0.00,,,0.00,meteohub,2013-03-10 18:24:00,
2013-03-10 14:29:00,43.2,30.6,30.35,East,80,1.0,4.0,61,0.00,,,0.00,meteohub,2013-03-10 18:29:00,
2013-03-10 14:34:00,43.2,30.2,30.35,ENE,71,0.0,4.0,60,0.00,,,0.00,meteohub,2013-03-10 18:34:00,
2013-03-10 14:39:00,43.2,30.2,30.34,ESE,106,2.0,3.0,60,0.00,,,0.00,meteohub,2013-03-10 18:39:00,
2013-03-10 14:44:00,43.0,30.0,30.34,SE,136,3.0,3.0,60,0.00,,,0.00,meteohub,2013-03-10 18:44:00,
2013-03-10 14:49:00,43.0,30.4,30.34,SE,128,2.0,5.0,61,0.00,,,0.00,meteohub,2013-03-10 18:49:00,
2013-03-10 14:54:00,43.2,30.6,30.33,SE,136,1.0,5.0,61,0.00,,,0.00,meteohub,2013-03-10 18:54:00,
2013-03-10 14:59:00,43.0,30.4,30.33,SE,133,4.0,4.0,61,0.00,,,0.00,meteohub,2013-03-10 18:59:00,
2013-03-10 15:04:00,43.3,30.7,30.33,ESE,121,2.0,5.0,61,0.00,,,0.00,meteohub,2013-03-10 19:04:00,
2013-03-10 15:09:00,43.2,31.1,30.33,ESE,110,2.0,7.0,62,0.00,,,0.00,meteohub,2013-03-10 19:09:00,
2013-03-10 15:14:00,43.5,30.6,30.33,SE,142,1.0,7.0,60,0.00,,,0.00,meteohub,2013-03-10 19:14:00,
2013-03-10 15:19:00,43.5,30.6,30.33,SSE,159,4.0,5.0,60,0.00,,,0.00,meteohub,2013-03-10 19:19:00,
2013-03-10 15:24:00,43.9,30.9,30.33,South,174,1.0,4.0,60,0.00,,,0.00,meteohub,2013-03-10 19:24:00,
2013-03-10 15:29:00,43.5,30.9,30.33,SSE,157,1.0,4.0,61,0.00,,,0.00,meteohub,2013-03-10 19:29:00,
2013-03-10 15:34:00,44.2,30.7,30.32,ESE,121,1.0,4.0,59,0.00,,,0.00,meteohub,2013-03-10 19:34:00,
2013-03-10 15:39:00,44.6,30.7,30.32,ESE,102,4.0,4.0,58,0.00,,,0.00,meteohub,2013-03-10 19:39:00,
2013-03-10 15:44:00,44.2,30.4,30.32,ESE,112,2.0,3.0,58,0.00,,,0.00,meteohub,2013-03-10 19:44:00,
2013-03-10 15:49:00,44.2,30.7,30.32,ESE,120,3.0,4.0,59,0.00,,,0.00,meteohub,2013-03-10 19:49:00,
2013-03-10 15:54:00,44.2,30.7,30.32,ESE,115,1.0,4.0,59,0.00,,,0.00,meteohub,2013-03-10 19:54:00,
2013-03-10 15:59:00,44.4,30.9,30.32,SSW,194,0.0,4.0,59,0.00,,,0.00,meteohub,2013-03-10 19:59:00,
2013-03-10 16:04:00,44.8,31.3,30.32,SE,130,1.0,4.0,59,0.00,,,0.00,meteohub,2013-03-10 20:04:00,
2013-03-10 16:09:00,44.4,30.9,30.32,SE,129,1.0,4.0,59,0.00,,,0.00,meteohub,2013-03-10 20:09:00,
2013-03-10 16:14:00,44.4,30.6,30.32,NNW,328,2.0,5.0,58,0.00,,,0.00,meteohub,2013-03-10 20:14:00,
2013-03-10 16:20:00,44.6,30.7,30.32,SE,127,1.0,5.0,58,0.00,,,0.00,meteohub,2013-03-10 20:20:00,
2013-03-10 16:25:00,44.8,30.6,30.32,SSE,153,0.0,5.0,57,0.00,,,0.00,meteohub,2013-03-10 20:25:00,
2013-03-10 16:30:00,44.8,30.6,30.32,SE,130,1.0,4.0,57,0.00,,,0.00,meteohub,2013-03-10 20:30:00,
2013-03-10 16:35:00,44.4,30.6,30.32,ESE,122,1.0,4.0,58,0.00,,,0.00,meteohub,2013-03-10 20:35:00,
2013-03-10 16:40:00,45.0,30.2,30.32,SE,141,0.0,4.0,56,0.00,,,0.00,meteohub,2013-03-10 20:40:00,
2013-03-10 16:45:00,44.8,30.6,30.32,WSW,246,1.0,5.0,57,0.00,,,0.00,meteohub,2013-03-10 20:45:00,
2013-03-10 16:50:00,44.4,29.7,30.32,SSE,168,0.0,5.0,56,0.00,,,0.00,meteohub,2013-03-10 20:50:00,
2013-03-10 16:55:00,44.6,29.5,30.32,West,262,1.0,5.0,55,0.00,,,0.00,meteohub,2013-03-10 20:55:00,
2013-03-10 17:00:00,44.4,29.7,30.31,South,188,1.0,2.0,56,0.00,,,0.00,meteohub,2013-03-10 21:00:00,
2013-03-10 17:05:00,44.6,29.8,30.31,SE,128,1.0,3.0,56,0.00,,,0.00,meteohub,2013-03-10 21:05:00,
2013-03-10 17:10:00,44.8,30.0,30.32,WSW,244,2.0,3.0,56,0.00,,,0.00,meteohub,2013-03-10 21:10:00,
2013-03-10 17:15:00,44.8,30.0,30.32,South,177,1.0,3.0,56,0.00,,,0.00,meteohub,2013-03-10 21:15:00,
2013-03-10 17:20:00,44.4,30.2,30.31,ESE,110,1.0,3.0,57,0.00,,,0.00,meteohub,2013-03-10 21:20:00,
2013-03-10 17:25:00,44.4,29.7,30.31,ESE,112,0.0,3.0,56,0.00,,,0.00,meteohub,2013-03-10 21:25:00,
2013-03-10 17:30:00,44.1,30.2,30.31,ESE,112,0.0,3.0,58,0.00,,,0.00,meteohub,2013-03-10 21:30:00,
2013-03-10 17:35:00,44.1,30.7,30.31,ESE,112,0.0,3.0,59,0.00,,,0.00,meteohub,2013-03-10 21:35:00,
2013-03-10 17:40:00,43.9,30.0,30.31,ESE,112,0.0,2.0,58,0.00,,,0.00,meteohub,2013-03-10 21:40:00,
2013-03-10 17:45:00,43.9,30.0,30.31,SE,143,2.0,2.0,58,0.00,,,0.00,meteohub,2013-03-10 21:45:00,
2013-03-10 17:50:00,44.1,30.2,30.31,ESE,121,1.0,4.0,58,0.00,,,0.00,meteohub,2013-03-10 21:50:00,
2013-03-10 17:55:00,43.9,30.6,30.31,ESE,121,1.0,4.0,59,0.00,,,0.00,meteohub,2013-03-10 21:55:00,
2013-03-10 18:00:00,43.9,30.6,30.30,SE,127,2.0,4.0,59,0.00,,,0.00,meteohub,2013-03-10 22:00:00,
2013-03-10 18:05:00,43.3,30.4,30.30,SSE,163,1.0,3.0,60,0.00,,,0.00,meteohub,2013-03-10 22:05:00,
2013-03-10 18:10:00,43.3,30.7,30.30,SE,131,3.0,3.0,61,0.00,,,0.00,meteohub,2013-03-10 22:10:00,
2013-03-10 18:15:00,43.2,30.6,30.31,ESE,121,0.0,3.0,61,0.00,,,0.00,meteohub,2013-03-10 22:15:00,
2013-03-10 18:20:00,42.8,30.7,30.31,ESE,121,0.0,3.0,62,0.00,,,0.00,meteohub,2013-03-10 22:20:00,
2013-03-10 18:25:00,42.4,30.7,30.31,ESE,121,0.0,3.0,63,0.00,,,0.00,meteohub,2013-03-10 22:25:00,
2013-03-10 18:30:00,42.3,30.9,30.31,ESE,121,0.0,3.0,64,0.00,,,0.00,meteohub,2013-03-10 22:30:00,
2013-03-10 18:35:00,41.7,30.4,30.31,ESE,121,2.0,2.0,64,0.00,,,0.00,meteohub,2013-03-10 22:35:00,
2013-03-10 18:40:00,41.7,30.4,30.31,ESE,121,0.0,4.0,64,0.00,,,0.00,meteohub,2013-03-10 22:40:00,
2013-03-10 18:45:00,41.5,30.7,30.31,SE,126,2.0,4.0,65,0.00,,,0.00,meteohub,2013-03-10 22:45:00,
2013-03-10 18:50:00,41.4,30.6,30.31,ESE,119,2.0,4.0,65,0.00,,,0.00,meteohub,2013-03-10 22:50:00,
2013-03-10 18:55:00,41.2,30.7,30.30,ESE,119,2.0,4.0,66,0.00,,,0.00,meteohub,2013-03-10 22:55:00,
2013-03-10 19:00:00,41.2,30.7,30.31,ESE,123,0.0,4.0,66,0.00,,,0.00,meteohub,2013-03-10 23:00:00,
2013-03-10 19:05:00,40.6,30.6,30.31,ESE,123,0.0,4.0,67,0.00,,,0.00,meteohub,2013-03-10 23:05:00,
2013-03-10 19:10:00,39.9,30.2,30.31,ESE,123,0.0,4.0,68,0.00,,,0.00,meteohub,2013-03-10 23:10:00,
2013-03-10 19:15:00,39.2,30.2,30.32,ESE,122,0.0,3.0,70,0.00,,,0.00,meteohub,2013-03-10 23:15:00,
2013-03-10 19:20:00,38.8,30.2,30.32,ESE,122,0.0,2.0,71,0.00,,,0.00,meteohub,2013-03-10 23:20:00,
2013-03-10 19:25:00,39.0,30.7,30.32,ESE,122,0.0,2.0,72,0.00,,,0.00,meteohub,2013-03-10 23:25:00,
2013-03-10 19:30:00,39.4,31.1,30.32,SE,138,2.0,2.0,72,0.00,,,0.00,meteohub,2013-03-10 23:30:00,
2013-03-10 19:36:00,39.6,30.9,30.32,SE,134,1.0,4.0,71,0.00,,,0.00,meteohub,2013-03-10 23:36:00,
2013-03-10 19:41:00,39.6,30.9,30.31,SE,140,0.0,4.0,71,0.00,,,0.00,meteohub,2013-03-10 23:41:00,
2013-03-10 19:46:00,39.6,31.3,30.32,East,98,0.0,5.0,72,0.00,,,0.00,meteohub,2013-03-10 23:46:00,
2013-03-10 19:51:00,39.4,31.1,30.32,ESE,113,0.0,5.0,72,0.00,,,0.00,meteohub,2013-03-10 23:51:00,
2013-03-10 19:56:00,39.2,30.9,30.32,ESE,116,0.0,5.0,72,0.00,,,0.00,meteohub,2013-03-10 23:56:00,
2013-03-10 20:01:00,38.8,30.9,30.32,ESE,123,1.0,3.0,73,0.00,,,0.00,meteohub,2013-03-11 00:01:00,
2013-03-10 20:06:00,38.8,30.9,30.33,ESE,115,2.0,3.0,73,0.00,,,0.00,meteohub,2013-03-11 00:06:00,
2013-03-10 20:11:00,38.8,30.9,30.32,SE,141,1.0,4.0,73,0.00,,,0.00,meteohub,2013-03-11 00:11:00,
2013-03-10 20:16:00,38.7,31.1,30.33,SE,125,0.0,4.0,74,0.00,,,0.00,meteohub,2013-03-11 00:16:00,
2013-03-10 20:21:00,38.5,30.9,30.33,SE,125,0.0,3.0,74,0.00,,,0.00,meteohub,2013-03-11 00:21:00,
2013-03-10 20:26:00,38.3,31.1,30.33,SE,125,0.0,3.0,75,0.00,,,0.00,meteohub,2013-03-11 00:26:00,
2013-03-10 20:31:00,37.9,30.7,30.33,SE,125,0.0,1.0,75,0.00,,,0.00,meteohub,2013-03-11 00:31:00,
2013-03-10 20:36:00,37.9,30.7,30.32,SSE,165,1.0,3.0,75,0.00,,,0.00,meteohub,2013-03-11 00:36:00,
2013-03-10 20:41:00,37.8,30.9,30.32,SSE,165,0.0,3.0,76,0.00,,,0.00,meteohub,2013-03-11 00:41:00,
2013-03-10 20:46:00,37.8,30.9,30.32,SSE,165,0.0,3.0,76,0.00,,,0.00,meteohub,2013-03-11 00:46:00,
2013-03-10 20:52:00,37.6,30.7,30.32,SSE,165,0.0,2.0,76,0.00,,,0.00,meteohub,2013-03-11 00:52:00,
2013-03-10 20:57:00,37.4,30.9,30.32,SSE,165,0.0,0.0,77,0.00,,,0.00,meteohub,2013-03-11 00:57:00,
2013-03-10 21:02:00,37.4,30.9,30.32,SSE,164,1.0,0.0,77,0.00,,,0.00,meteohub,2013-03-11 01:02:00,
2013-03-10 21:07:00,37.2,30.7,30.32,SSE,165,0.0,2.0,77,0.00,,,0.00,meteohub,2013-03-11 01:07:00,
2013-03-10 21:12:00,37.2,30.7,30.31,SE,134,2.0,2.0,77,0.00,,,0.00,meteohub,2013-03-11 01:12:00,
2013-03-10 21:17:00,37.2,30.7,30.31,ESE,112,1.0,3.0,77,0.00,,,0.00,meteohub,2013-03-11 01:17:00,
2013-03-10 21:22:00,37.0,30.6,30.31,SSW,204,0.0,3.0,77,0.00,,,0.00,meteohub,2013-03-11 01:22:00,
2013-03-10 21:27:00,37.0,30.7,30.31,SSE,150,2.0,3.0,78,0.00,,,0.00,meteohub,2013-03-11 01:27:00,
2013-03-10 21:32:00,37.0,30.7,30.31,SSE,150,1.0,3.0,78,0.00,,,0.00,meteohub,2013-03-11 01:32:00,
2013-03-10 21:37:00,36.9,30.6,30.31,SSE,150,0.0,2.0,78,0.00,,,0.00,meteohub,2013-03-11 01:37:00,
2013-03-10 21:42:00,37.0,30.7,30.31,SE,139,0.0,2.0,78,0.00,,,0.00,meteohub,2013-03-11 01:42:00,
2013-03-10 21:47:00,36.9,30.9,30.31,SE,139,0.0,2.0,79,0.00,,,0.00,meteohub,2013-03-11 01:47:00,
2013-03-10 21:52:00,36.9,30.9,30.31,SE,139,0.0,2.0,79,0.00,,,0.00,meteohub,2013-03-11 01:52:00,
2013-03-10 21:57:00,36.9,30.9,30.32,SE,139,0.0,2.0,79,0.00,,,0.00,meteohub,2013-03-11 01:57:00,
2013-03-10 22:02:00,36.7,31.1,30.31,SE,139,1.0,2.0,80,0.00,,,0.00,meteohub,2013-03-11 02:02:00,
2013-03-10 22:07:00,36.5,30.9,30.31,SSE,150,0.0,2.0,80,0.00,,,0.00,meteohub,2013-03-11 02:07:00,
2013-03-10 22:12:00,36.7,31.5,30.30,South,176,0.0,3.0,81,0.00,,,0.00,meteohub,2013-03-11 02:12:00,
2013-03-10 22:17:00,36.7,31.5,30.30,SE,134,3.0,3.0,81,0.00,,,0.00,meteohub,2013-03-11 02:17:00,
2013-03-10 22:22:00,36.5,31.3,30.31,ESE,115,0.0,5.0,81,0.00,,,0.00,meteohub,2013-03-11 02:22:00,
2013-03-10 22:27:00,36.3,31.3,30.30,ESE,112,0.0,5.0,82,0.00,,,0.00,meteohub,2013-03-11 02:27:00,
2013-03-10 22:32:00,36.5,31.5,30.31,WSW,246,1.0,5.0,82,0.00,,,0.00,meteohub,2013-03-11 02:32:00,
2013-03-10 22:37:00,36.1,31.1,30.31,WSW,250,0.0,3.0,82,0.00,,,0.00,meteohub,2013-03-11 02:37:00,
2013-03-10 22:42:00,36.1,31.5,30.31,WSW,250,1.0,3.0,83,0.00,,,0.00,meteohub,2013-03-11 02:42:00,
2013-03-10 22:47:00,36.1,31.5,30.32,WSW,247,0.0,3.0,83,0.00,,,0.00,meteohub,2013-03-11 02:47:00,
2013-03-10 22:52:00,36.1,31.5,30.32,WSW,247,0.0,1.0,83,0.00,,,0.00,meteohub,2013-03-11 02:52:00,
2013-03-10 22:57:00,36.1,31.5,30.32,WSW,247,0.0,2.0,83,0.00,,,0.00,meteohub,2013-03-11 02:57:00,
2013-03-10 23:02:00,36.0,31.3,30.31,WSW,239,0.0,2.0,83,0.00,,,0.00,meteohub,2013-03-11 03:02:00,
2013-03-10 23:07:00,36.0,31.3,30.31,West,269,1.0,3.0,83,0.00,,,0.00,meteohub,2013-03-11 03:07:00,
2013-03-10 23:12:00,36.0,31.3,30.31,SW,228,1.0,3.0,83,0.00,,,0.00,meteohub,2013-03-11 03:12:00,
2013-03-10 23:17:00,35.8,31.1,30.31,SW,228,0.0,3.0,83,0.00,,,0.00,meteohub,2013-03-11 03:17:00,
2013-03-10 23:23:00,35.6,30.9,30.31,WSW,237,0.0,3.0,83,0.00,,,0.00,meteohub,2013-03-11 03:23:00,
2013-03-10 23:28:00,35.6,30.9,30.30,SW,216,0.0,2.0,83,0.00,,,0.00,meteohub,2013-03-11 03:28:00,
2013-03-10 23:33:00,35.4,30.7,30.30,SSW,208,0.0,2.0,83,0.00,,,0.00,meteohub,2013-03-11 03:33:00,
2013-03-10 23:38:00,35.4,30.7,30.30,SW,227,0.0,2.0,83,0.00,,,0.00,meteohub,2013-03-11 03:38:00,
2013-03-10 23:43:00,35.2,30.9,30.29,NNE,16,0.0,2.0,84,0.00,,,0.00,meteohub,2013-03-11 03:43:00,
2013-03-10 23:48:00,35.1,30.7,30.29,SE,145,0.0,2.0,84,0.00,,,0.00,meteohub,2013-03-11 03:48:00,
2013-03-10 23:53:00,34.9,30.6,30.29,WSW,244,0.0,2.0,84,0.00,,,0.00,meteohub,2013-03-11 03:53:00,
2013-03-10 23:58:00,34.9,30.6,30.29,SW,236,0.0,2.0,84,0.00,,,0.00,meteohub,2013-03-11 03:58:00,